sensor_id;sensor_type;location;lat;lon;timestamp;P1;durP1;ratioP1;P2;durP2;ratioP2
7150;SDS011;3617;48.836;9.172;2022-07-23T00:00:31;6.07;;;4.07;;
7150;SDS011;3617;48.836;9.172;2022-07-23T00:02:57;7.55;;;3.90;;
7150;SDS011;3617;48.836;9.172;2022-07-23T00:05:23;5.47;;;3.92;;
7150;SDS011;3617;48.836;9.172;2022-07-23T00:07:49;4.70;;;4.10;;
7150;SDS011;3617;48.836;9.172;2022-07-23T00:10:15;4.63;;;3.75;;
7150;SDS011;3617;48.836;9.172;2022-07-23T00:12:41;5.32;;;3.47;;
7150;SDS011;3617;48.836;9.172;2022-07-23T00:15:07;4.60;;;4.20;;
7150;SDS011;3617;48.836;9.172;2022-07-23T00:17:33;5.07;;;3.72;;
7150;SDS011;3617;48.836;9.172;2022-07-23T00:19:59;4.70;;;4.15;;
7150;SDS011;3617;48.836;9.172;2022-07-23T00:22:26;4.40;;;3.67;;
7150;SDS011;3617;48.836;9.172;2022-07-23T00:24:54;4.82;;;3.70;;
7150;SDS011;3617;48.836;9.172;2022-07-23T00:27:20;5.18;;;3.65;;
7150;SDS011;3617;48.836;9.172;2022-07-23T00:29:46;4.53;;;3.50;;
7150;SDS011;3617;48.836;9.172;2022-07-23T00:32:12;5.43;;;3.60;;
7150;SDS011;3617;48.836;9.172;2022-07-23T00:34:38;3.88;;;3.50;;
7150;SDS011;3617;48.836;9.172;2022-07-23T00:37:04;4.38;;;3.40;;
7150;SDS011;3617;48.836;9.172;2022-07-23T00:39:30;4.05;;;3.65;;
7150;SDS011;3617;48.836;9.172;2022-07-23T00:41:56;5.20;;;3.78;;
7150;SDS011;3617;48.836;9.172;2022-07-23T00:44:23;4.97;;;3.83;;
7150;SDS011;3617;48.836;9.172;2022-07-23T00:46:51;8.32;;;3.42;;
7150;SDS011;3617;48.836;9.172;2022-07-23T00:49:19;4.03;;;3.63;;
7150;SDS011;3617;48.836;9.172;2022-07-23T00:51:45;4.20;;;3.80;;
7150;SDS011;3617;48.836;9.172;2022-07-23T00:54:11;4.20;;;3.72;;
7150;SDS011;3617;48.836;9.172;2022-07-23T00:56:37;4.90;;;3.42;;
7150;SDS011;3617;48.836;9.172;2022-07-23T00:59:04;3.85;;;3.45;;
7150;SDS011;3617;48.836;9.172;2022-07-23T01:01:31;5.25;;;3.65;;
7150;SDS011;3617;48.836;9.172;2022-07-23T01:03:57;5.85;;;3.75;;
7150;SDS011;3617;48.836;9.172;2022-07-23T01:06:23;4.53;;;3.50;;
7150;SDS011;3617;48.836;9.172;2022-07-23T01:08:49;4.13;;;3.72;;
7150;SDS011;3617;48.836;9.172;2022-07-23T01:11:15;4.45;;;3.63;;
7150;SDS011;3617;48.836;9.172;2022-07-23T01:13:42;4.35;;;3.80;;
7150;SDS011;3617;48.836;9.172;2022-07-23T01:16:08;4.85;;;3.67;;
7150;SDS011;3617;48.836;9.172;2022-07-23T01:18:34;4.30;;;3.65;;
7150;SDS011;3617;48.836;9.172;2022-07-23T01:21:00;4.60;;;3.90;;
7150;SDS011;3617;48.836;9.172;2022-07-23T01:23:26;4.72;;;3.83;;
7150;SDS011;3617;48.836;9.172;2022-07-23T01:25:53;3.67;;;3.38;;
7150;SDS011;3617;48.836;9.172;2022-07-23T01:28:19;5.32;;;3.83;;
7150;SDS011;3617;48.836;9.172;2022-07-23T01:30:47;4.10;;;3.33;;
7150;SDS011;3617;48.836;9.172;2022-07-23T01:33:13;5.38;;;3.63;;
7150;SDS011;3617;48.836;9.172;2022-07-23T01:35:39;4.82;;;3.75;;
7150;SDS011;3617;48.836;9.172;2022-07-23T01:38:05;4.65;;;3.88;;
7150;SDS011;3617;48.836;9.172;2022-07-23T01:40:31;4.00;;;3.60;;
7150;SDS011;3617;48.836;9.172;2022-07-23T01:42:57;4.55;;;3.72;;
7150;SDS011;3617;48.836;9.172;2022-07-23T01:45:23;5.22;;;3.70;;
7150;SDS011;3617;48.836;9.172;2022-07-23T01:47:49;4.03;;;3.60;;
7150;SDS011;3617;48.836;9.172;2022-07-23T01:50:16;4.97;;;3.33;;
7150;SDS011;3617;48.836;9.172;2022-07-23T01:52:42;3.50;;;3.20;;
7150;SDS011;3617;48.836;9.172;2022-07-23T01:55:08;4.03;;;3.50;;
7150;SDS011;3617;48.836;9.172;2022-07-23T01:57:34;4.63;;;4.00;;
7150;SDS011;3617;48.836;9.172;2022-07-23T02:00:00;5.13;;;3.47;;
7150;SDS011;3617;48.836;9.172;2022-07-23T02:02:26;4.82;;;3.45;;
7150;SDS011;3617;48.836;9.172;2022-07-23T02:04:52;4.63;;;3.40;;
7150;SDS011;3617;48.836;9.172;2022-07-23T02:07:18;4.95;;;3.97;;
7150;SDS011;3617;48.836;9.172;2022-07-23T02:09:44;4.40;;;4.00;;
7150;SDS011;3617;48.836;9.172;2022-07-23T02:12:10;4.07;;;3.60;;
7150;SDS011;3617;48.836;9.172;2022-07-23T02:14:36;8.02;;;3.83;;
7150;SDS011;3617;48.836;9.172;2022-07-23T02:17:02;5.15;;;3.90;;
7150;SDS011;3617;48.836;9.172;2022-07-23T02:19:28;4.80;;;3.67;;
7150;SDS011;3617;48.836;9.172;2022-07-23T02:21:55;8.70;;;4.03;;
7150;SDS011;3617;48.836;9.172;2022-07-23T02:24:21;4.28;;;3.60;;
7150;SDS011;3617;48.836;9.172;2022-07-23T02:26:47;4.32;;;3.50;;
7150;SDS011;3617;48.836;9.172;2022-07-23T02:29:13;4.13;;;3.35;;
7150;SDS011;3617;48.836;9.172;2022-07-23T02:31:39;4.70;;;3.70;;
7150;SDS011;3617;48.836;9.172;2022-07-23T02:34:05;4.47;;;4.07;;
7150;SDS011;3617;48.836;9.172;2022-07-23T02:36:32;4.50;;;3.72;;
7150;SDS011;3617;48.836;9.172;2022-07-23T02:38:58;4.82;;;3.95;;
7150;SDS011;3617;48.836;9.172;2022-07-23T02:41:24;6.90;;;4.18;;
7150;SDS011;3617;48.836;9.172;2022-07-23T02:43:50;4.35;;;3.90;;
7150;SDS011;3617;48.836;9.172;2022-07-23T02:46:16;5.25;;;3.83;;
7150;SDS011;3617;48.836;9.172;2022-07-23T02:48:43;4.90;;;4.43;;
7150;SDS011;3617;48.836;9.172;2022-07-23T02:51:09;4.25;;;3.83;;
7150;SDS011;3617;48.836;9.172;2022-07-23T02:53:35;4.93;;;4.03;;
7150;SDS011;3617;48.836;9.172;2022-07-23T02:56:01;4.65;;;3.95;;
7150;SDS011;3617;48.836;9.172;2022-07-23T02:58:27;4.95;;;4.32;;
7150;SDS011;3617;48.836;9.172;2022-07-23T03:00:53;6.38;;;4.03;;
7150;SDS011;3617;48.836;9.172;2022-07-23T03:03:19;5.80;;;3.92;;
7150;SDS011;3617;48.836;9.172;2022-07-23T03:05:45;5.60;;;4.38;;
7150;SDS011;3617;48.836;9.172;2022-07-23T03:08:11;5.65;;;4.30;;
7150;SDS011;3617;48.836;9.172;2022-07-23T03:10:37;5.20;;;3.80;;
7150;SDS011;3617;48.836;9.172;2022-07-23T03:13:03;6.63;;;3.85;;
7150;SDS011;3617;48.836;9.172;2022-07-23T03:15:29;5.18;;;3.80;;
7150;SDS011;3617;48.836;9.172;2022-07-23T03:17:55;5.07;;;4.05;;
7150;SDS011;3617;48.836;9.172;2022-07-23T03:20:21;4.20;;;3.80;;
7150;SDS011;3617;48.836;9.172;2022-07-23T03:22:47;6.13;;;4.22;;
7150;SDS011;3617;48.836;9.172;2022-07-23T03:25:13;5.35;;;3.80;;
7150;SDS011;3617;48.836;9.172;2022-07-23T03:27:39;4.85;;;3.92;;
7150;SDS011;3617;48.836;9.172;2022-07-23T03:30:06;4.80;;;3.95;;
7150;SDS011;3617;48.836;9.172;2022-07-23T03:32:32;4.55;;;4.00;;
7150;SDS011;3617;48.836;9.172;2022-07-23T03:34:58;4.30;;;3.90;;
7150;SDS011;3617;48.836;9.172;2022-07-23T03:37:24;4.70;;;3.60;;
7150;SDS011;3617;48.836;9.172;2022-07-23T03:39:50;5.38;;;4.03;;
7150;SDS011;3617;48.836;9.172;2022-07-23T03:42:16;5.22;;;4.05;;
7150;SDS011;3617;48.836;9.172;2022-07-23T03:44:42;4.38;;;3.85;;
7150;SDS011;3617;48.836;9.172;2022-07-23T03:47:08;6.15;;;4.32;;
7150;SDS011;3617;48.836;9.172;2022-07-23T03:49:34;5.78;;;3.85;;
7150;SDS011;3617;48.836;9.172;2022-07-23T03:52:00;6.32;;;4.25;;
7150;SDS011;3617;48.836;9.172;2022-07-23T03:54:26;5.70;;;3.67;;
7150;SDS011;3617;48.836;9.172;2022-07-23T03:56:52;5.22;;;4.32;;
7150;SDS011;3617;48.836;9.172;2022-07-23T03:59:18;5.68;;;4.32;;
7150;SDS011;3617;48.836;9.172;2022-07-23T04:01:44;4.60;;;4.00;;
7150;SDS011;3617;48.836;9.172;2022-07-23T04:04:10;4.65;;;3.78;;
7150;SDS011;3617;48.836;9.172;2022-07-23T04:06:36;5.85;;;4.30;;
7150;SDS011;3617;48.836;9.172;2022-07-23T04:09:02;4.60;;;4.20;;
7150;SDS011;3617;48.836;9.172;2022-07-23T04:11:29;4.70;;;4.15;;
7150;SDS011;3617;48.836;9.172;2022-07-23T04:13:55;6.20;;;3.95;;
7150;SDS011;3617;48.836;9.172;2022-07-23T04:16:21;6.18;;;3.92;;
7150;SDS011;3617;48.836;9.172;2022-07-23T04:18:47;5.57;;;4.65;;
7150;SDS011;3617;48.836;9.172;2022-07-23T04:21:13;4.70;;;4.10;;
7150;SDS011;3617;48.836;9.172;2022-07-23T04:23:39;6.75;;;3.90;;
7150;SDS011;3617;48.836;9.172;2022-07-23T04:26:05;4.68;;;4.28;;
7150;SDS011;3617;48.836;9.172;2022-07-23T04:28:31;5.68;;;4.22;;
7150;SDS011;3617;48.836;9.172;2022-07-23T04:30:57;4.78;;;4.00;;
7150;SDS011;3617;48.836;9.172;2022-07-23T04:33:23;5.78;;;4.45;;
7150;SDS011;3617;48.836;9.172;2022-07-23T04:35:49;5.95;;;4.05;;
7150;SDS011;3617;48.836;9.172;2022-07-23T04:38:15;5.55;;;4.38;;
7150;SDS011;3617;48.836;9.172;2022-07-23T04:40:41;6.72;;;4.50;;
7150;SDS011;3617;48.836;9.172;2022-07-23T04:43:08;5.03;;;4.20;;
7150;SDS011;3617;48.836;9.172;2022-07-23T04:45:33;5.93;;;4.43;;
7150;SDS011;3617;48.836;9.172;2022-07-23T04:47:59;4.78;;;4.05;;
7150;SDS011;3617;48.836;9.172;2022-07-23T04:50:26;4.65;;;4.15;;
7150;SDS011;3617;48.836;9.172;2022-07-23T04:52:52;5.00;;;4.10;;
7150;SDS011;3617;48.836;9.172;2022-07-23T04:55:18;5.03;;;4.05;;
7150;SDS011;3617;48.836;9.172;2022-07-23T04:57:44;4.85;;;3.90;;
7150;SDS011;3617;48.836;9.172;2022-07-23T05:00:10;4.55;;;3.97;;
7150;SDS011;3617;48.836;9.172;2022-07-23T05:02:36;5.13;;;4.43;;
7150;SDS011;3617;48.836;9.172;2022-07-23T05:05:02;5.28;;;4.22;;
7150;SDS011;3617;48.836;9.172;2022-07-23T05:07:28;4.72;;;3.95;;
7150;SDS011;3617;48.836;9.172;2022-07-23T05:09:54;5.00;;;4.28;;
7150;SDS011;3617;48.836;9.172;2022-07-23T05:12:21;6.03;;;4.53;;
7150;SDS011;3617;48.836;9.172;2022-07-23T05:14:47;4.45;;;4.00;;
7150;SDS011;3617;48.836;9.172;2022-07-23T05:17:13;5.80;;;4.43;;
7150;SDS011;3617;48.836;9.172;2022-07-23T05:19:39;5.80;;;4.05;;
7150;SDS011;3617;48.836;9.172;2022-07-23T05:22:05;4.82;;;4.07;;
7150;SDS011;3617;48.836;9.172;2022-07-23T05:24:31;4.68;;;4.00;;
7150;SDS011;3617;48.836;9.172;2022-07-23T05:26:57;5.10;;;4.03;;
7150;SDS011;3617;48.836;9.172;2022-07-23T05:29:23;4.90;;;3.80;;
7150;SDS011;3617;48.836;9.172;2022-07-23T05:31:49;4.32;;;3.92;;
7150;SDS011;3617;48.836;9.172;2022-07-23T05:34:15;4.82;;;4.32;;
7150;SDS011;3617;48.836;9.172;2022-07-23T05:36:41;5.28;;;4.43;;
7150;SDS011;3617;48.836;9.172;2022-07-23T05:39:07;5.45;;;4.53;;
7150;SDS011;3617;48.836;9.172;2022-07-23T05:41:33;6.43;;;3.88;;
7150;SDS011;3617;48.836;9.172;2022-07-23T05:43:59;4.40;;;3.92;;
7150;SDS011;3617;48.836;9.172;2022-07-23T05:46:25;4.40;;;4.00;;
7150;SDS011;3617;48.836;9.172;2022-07-23T05:48:51;4.50;;;4.10;;
7150;SDS011;3617;48.836;9.172;2022-07-23T05:51:21;5.20;;;4.10;;
7150;SDS011;3617;48.836;9.172;2022-07-23T05:53:47;5.25;;;4.50;;
7150;SDS011;3617;48.836;9.172;2022-07-23T05:56:14;6.00;;;4.32;;
7150;SDS011;3617;48.836;9.172;2022-07-23T05:58:40;5.32;;;4.50;;
7150;SDS011;3617;48.836;9.172;2022-07-23T06:01:06;5.25;;;4.45;;
7150;SDS011;3617;48.836;9.172;2022-07-23T06:03:32;5.15;;;4.45;;
7150;SDS011;3617;48.836;9.172;2022-07-23T06:05:58;7.82;;;4.43;;
7150;SDS011;3617;48.836;9.172;2022-07-23T06:08:24;4.70;;;4.13;;
7150;SDS011;3617;48.836;9.172;2022-07-23T06:10:50;5.55;;;4.20;;
7150;SDS011;3617;48.836;9.172;2022-07-23T06:13:17;6.20;;;4.35;;
7150;SDS011;3617;48.836;9.172;2022-07-23T06:15:43;5.85;;;4.90;;
7150;SDS011;3617;48.836;9.172;2022-07-23T06:18:09;5.05;;;4.28;;
7150;SDS011;3617;48.836;9.172;2022-07-23T06:20:35;6.68;;;4.60;;
7150;SDS011;3617;48.836;9.172;2022-07-23T06:23:01;5.70;;;4.50;;
7150;SDS011;3617;48.836;9.172;2022-07-23T06:25:27;6.50;;;4.35;;
7150;SDS011;3617;48.836;9.172;2022-07-23T06:27:53;5.47;;;3.90;;
7150;SDS011;3617;48.836;9.172;2022-07-23T06:30:19;5.28;;;4.60;;
7150;SDS011;3617;48.836;9.172;2022-07-23T06:32:46;4.72;;;4.25;;
7150;SDS011;3617;48.836;9.172;2022-07-23T06:35:12;6.32;;;4.72;;
7150;SDS011;3617;48.836;9.172;2022-07-23T06:37:38;7.57;;;4.35;;
7150;SDS011;3617;48.836;9.172;2022-07-23T06:40:04;7.88;;;4.25;;
7150;SDS011;3617;48.836;9.172;2022-07-23T06:42:31;5.78;;;4.40;;
7150;SDS011;3617;48.836;9.172;2022-07-23T06:44:57;6.80;;;4.90;;
7150;SDS011;3617;48.836;9.172;2022-07-23T06:47:23;5.13;;;4.30;;
7150;SDS011;3617;48.836;9.172;2022-07-23T06:49:49;5.65;;;4.35;;
7150;SDS011;3617;48.836;9.172;2022-07-23T06:52:15;6.18;;;4.82;;
7150;SDS011;3617;48.836;9.172;2022-07-23T06:54:41;5.15;;;4.65;;
7150;SDS011;3617;48.836;9.172;2022-07-23T06:57:07;4.63;;;4.22;;
7150;SDS011;3617;48.836;9.172;2022-07-23T06:59:33;6.43;;;4.93;;
7150;SDS011;3617;48.836;9.172;2022-07-23T07:02:01;7.07;;;5.00;;
7150;SDS011;3617;48.836;9.172;2022-07-23T07:04:27;6.20;;;4.68;;
7150;SDS011;3617;48.836;9.172;2022-07-23T07:06:53;8.10;;;4.88;;
7150;SDS011;3617;48.836;9.172;2022-07-23T07:09:19;5.88;;;4.63;;
7150;SDS011;3617;48.836;9.172;2022-07-23T07:11:45;8.23;;;4.93;;
7150;SDS011;3617;48.836;9.172;2022-07-23T07:14:11;7.50;;;4.85;;
7150;SDS011;3617;48.836;9.172;2022-07-23T07:16:37;5.93;;;5.20;;
7150;SDS011;3617;48.836;9.172;2022-07-23T07:19:03;5.90;;;4.60;;
7150;SDS011;3617;48.836;9.172;2022-07-23T07:21:29;7.25;;;4.90;;
7150;SDS011;3617;48.836;9.172;2022-07-23T07:23:55;7.25;;;4.75;;
7150;SDS011;3617;48.836;9.172;2022-07-23T07:26:21;6.05;;;4.60;;
7150;SDS011;3617;48.836;9.172;2022-07-23T07:28:47;6.28;;;4.75;;
7150;SDS011;3617;48.836;9.172;2022-07-23T07:31:13;6.53;;;5.10;;
7150;SDS011;3617;48.836;9.172;2022-07-23T07:33:39;8.02;;;5.70;;
7150;SDS011;3617;48.836;9.172;2022-07-23T07:36:05;7.82;;;5.82;;
7150;SDS011;3617;48.836;9.172;2022-07-23T07:38:31;8.38;;;5.50;;
7150;SDS011;3617;48.836;9.172;2022-07-23T07:40:57;12.40;;;6.22;;
7150;SDS011;3617;48.836;9.172;2022-07-23T07:43:23;6.53;;;5.10;;
7150;SDS011;3617;48.836;9.172;2022-07-23T07:45:49;8.40;;;5.75;;
7150;SDS011;3617;48.836;9.172;2022-07-23T07:48:15;7.47;;;5.20;;
7150;SDS011;3617;48.836;9.172;2022-07-23T07:50:41;7.72;;;5.50;;
7150;SDS011;3617;48.836;9.172;2022-07-23T07:53:07;8.32;;;4.68;;
7150;SDS011;3617;48.836;9.172;2022-07-23T07:55:34;7.13;;;4.70;;
7150;SDS011;3617;48.836;9.172;2022-07-23T07:58:00;7.75;;;5.40;;
7150;SDS011;3617;48.836;9.172;2022-07-23T08:00:26;8.32;;;5.00;;
7150;SDS011;3617;48.836;9.172;2022-07-23T08:02:52;6.90;;;5.18;;
7150;SDS011;3617;48.836;9.172;2022-07-23T08:05:25;7.03;;;4.78;;
7150;SDS011;3617;48.836;9.172;2022-07-23T08:07:52;7.05;;;4.80;;
7150;SDS011;3617;48.836;9.172;2022-07-23T08:10:18;7.35;;;5.03;;
7150;SDS011;3617;48.836;9.172;2022-07-23T08:12:48;7.50;;;4.90;;
7150;SDS011;3617;48.836;9.172;2022-07-23T08:15:17;6.32;;;5.07;;
7150;SDS011;3617;48.836;9.172;2022-07-23T08:17:44;5.78;;;5.18;;
7150;SDS011;3617;48.836;9.172;2022-07-23T08:20:11;6.18;;;4.68;;
7150;SDS011;3617;48.836;9.172;2022-07-23T08:25:09;5.47;;;4.97;;
7150;SDS011;3617;48.836;9.172;2022-07-23T08:27:35;5.30;;;4.70;;
7150;SDS011;3617;48.836;9.172;2022-07-23T08:30:02;5.38;;;4.78;;
7150;SDS011;3617;48.836;9.172;2022-07-23T08:32:28;6.97;;;4.90;;
7150;SDS011;3617;48.836;9.172;2022-07-23T08:34:54;5.65;;;4.40;;
7150;SDS011;3617;48.836;9.172;2022-07-23T08:37:20;6.78;;;5.22;;
7150;SDS011;3617;48.836;9.172;2022-07-23T08:39:46;6.18;;;4.70;;
7150;SDS011;3617;48.836;9.172;2022-07-23T08:42:13;5.50;;;4.75;;
7150;SDS011;3617;48.836;9.172;2022-07-23T08:44:41;6.63;;;4.65;;
7150;SDS011;3617;48.836;9.172;2022-07-23T08:47:10;5.15;;;4.60;;
7150;SDS011;3617;48.836;9.172;2022-07-23T08:49:36;6.60;;;4.60;;
7150;SDS011;3617;48.836;9.172;2022-07-23T08:52:03;5.43;;;4.18;;
7150;SDS011;3617;48.836;9.172;2022-07-23T08:54:30;4.45;;;3.88;;
7150;SDS011;3617;48.836;9.172;2022-07-23T08:56:57;4.07;;;3.65;;
7150;SDS011;3617;48.836;9.172;2022-07-23T08:59:23;5.57;;;3.70;;
7150;SDS011;3617;48.836;9.172;2022-07-23T09:01:49;4.88;;;3.50;;
7150;SDS011;3617;48.836;9.172;2022-07-23T09:04:15;6.03;;;3.38;;
7150;SDS011;3617;48.836;9.172;2022-07-23T09:06:40;4.25;;;3.40;;
7150;SDS011;3617;48.836;9.172;2022-07-23T09:09:17;5.07;;;3.72;;
7150;SDS011;3617;48.836;9.172;2022-07-23T09:11:47;4.68;;;3.47;;
7150;SDS011;3617;48.836;9.172;2022-07-23T09:14:13;7.03;;;4.15;;
7150;SDS011;3617;48.836;9.172;2022-07-23T09:16:39;5.53;;;4.05;;
7150;SDS011;3617;48.836;9.172;2022-07-23T09:19:06;6.15;;;3.95;;
7150;SDS011;3617;48.836;9.172;2022-07-23T09:21:33;4.97;;;3.88;;
7150;SDS011;3617;48.836;9.172;2022-07-23T09:24:06;4.90;;;3.80;;
7150;SDS011;3617;48.836;9.172;2022-07-23T09:28:59;5.38;;;4.05;;
7150;SDS011;3617;48.836;9.172;2022-07-23T09:31:30;4.50;;;4.00;;
7150;SDS011;3617;48.836;9.172;2022-07-23T09:34:32;4.55;;;4.07;;
7150;SDS011;3617;48.836;9.172;2022-07-23T09:37:09;4.72;;;4.18;;
7150;SDS011;3617;48.836;9.172;2022-07-23T09:39:36;4.45;;;3.78;;
7150;SDS011;3617;48.836;9.172;2022-07-23T09:42:21;4.40;;;4.00;;
7150;SDS011;3617;48.836;9.172;2022-07-23T09:44:48;5.45;;;4.00;;
7150;SDS011;3617;48.836;9.172;2022-07-23T09:47:14;4.38;;;3.90;;
7150;SDS011;3617;48.836;9.172;2022-07-23T09:49:41;4.93;;;4.40;;
7150;SDS011;3617;48.836;9.172;2022-07-23T09:52:26;5.63;;;4.30;;
7150;SDS011;3617;48.836;9.172;2022-07-23T09:54:57;4.32;;;3.85;;
7150;SDS011;3617;48.836;9.172;2022-07-23T09:57:24;5.05;;;4.18;;
7150;SDS011;3617;48.836;9.172;2022-07-23T09:59:51;4.13;;;3.72;;
7150;SDS011;3617;48.836;9.172;2022-07-23T10:02:17;4.60;;;4.20;;
7150;SDS011;3617;48.836;9.172;2022-07-23T10:04:43;4.22;;;3.83;;
7150;SDS011;3617;48.836;9.172;2022-07-23T10:07:09;4.65;;;4.22;;
7150;SDS011;3617;48.836;9.172;2022-07-23T10:09:37;5.63;;;4.10;;
7150;SDS011;3617;48.836;9.172;2022-07-23T10:12:04;4.60;;;4.00;;
7150;SDS011;3617;48.836;9.172;2022-07-23T10:14:49;4.50;;;4.10;;
7150;SDS011;3617;48.836;9.172;2022-07-23T10:17:16;5.55;;;4.40;;
7150;SDS011;3617;48.836;9.172;2022-07-23T10:19:42;5.07;;;4.30;;
7150;SDS011;3617;48.836;9.172;2022-07-23T10:22:18;4.40;;;3.90;;
7150;SDS011;3617;48.836;9.172;2022-07-23T10:30:03;4.25;;;3.85;;
7150;SDS011;3617;48.836;9.172;2022-07-23T10:37:43;4.10;;;3.67;;
7150;SDS011;3617;48.836;9.172;2022-07-23T10:42:42;6.07;;;4.50;;
7150;SDS011;3617;48.836;9.172;2022-07-23T10:47:53;5.13;;;4.63;;
7150;SDS011;3617;48.836;9.172;2022-07-23T10:55:39;5.47;;;4.70;;
7150;SDS011;3617;48.836;9.172;2022-07-23T10:58:06;5.80;;;4.70;;
7150;SDS011;3617;48.836;9.172;2022-07-23T11:00:32;5.35;;;4.47;;
7150;SDS011;3617;48.836;9.172;2022-07-23T11:02:59;5.18;;;4.38;;
7150;SDS011;3617;48.836;9.172;2022-07-23T11:05:46;6.18;;;4.53;;
7150;SDS011;3617;48.836;9.172;2022-07-23T11:08:13;4.70;;;3.78;;
7150;SDS011;3617;48.836;9.172;2022-07-23T11:10:43;5.40;;;4.90;;
7150;SDS011;3617;48.836;9.172;2022-07-23T11:13:29;4.72;;;4.32;;
7150;SDS011;3617;48.836;9.172;2022-07-23T11:32:52;4.63;;;4.15;;
7150;SDS011;3617;48.836;9.172;2022-07-23T11:34:47;5.28;;;4.47;;
7150;SDS011;3617;48.836;9.172;2022-07-23T11:37:31;5.85;;;4.07;;
7150;SDS011;3617;48.836;9.172;2022-07-23T11:39:58;4.75;;;4.30;;
7150;SDS011;3617;48.836;9.172;2022-07-23T11:42:24;4.60;;;4.05;;
7150;SDS011;3617;48.836;9.172;2022-07-23T11:44:50;4.65;;;4.15;;
7150;SDS011;3617;48.836;9.172;2022-07-23T11:47:21;6.03;;;4.45;;
7150;SDS011;3617;48.836;9.172;2022-07-23T11:52:19;5.10;;;4.50;;
7150;SDS011;3617;48.836;9.172;2022-07-23T11:54:53;5.38;;;4.50;;
7150;SDS011;3617;48.836;9.172;2022-07-23T11:57:20;6.25;;;4.70;;
7150;SDS011;3617;48.836;9.172;2022-07-23T11:59:47;5.18;;;4.45;;
7150;SDS011;3617;48.836;9.172;2022-07-23T12:02:15;5.32;;;4.43;;
7150;SDS011;3617;48.836;9.172;2022-07-23T12:04:42;5.13;;;4.35;;
7150;SDS011;3617;48.836;9.172;2022-07-23T12:07:27;5.35;;;4.80;;
7150;SDS011;3617;48.836;9.172;2022-07-23T12:09:54;4.88;;;4.13;;
7150;SDS011;3617;48.836;9.172;2022-07-23T12:12:20;5.00;;;4.47;;
7150;SDS011;3617;48.836;9.172;2022-07-23T12:17:15;5.03;;;4.53;;
7150;SDS011;3617;48.836;9.172;2022-07-23T12:19:41;6.80;;;4.53;;
7150;SDS011;3617;48.836;9.172;2022-07-23T12:22:07;7.63;;;5.05;;
7150;SDS011;3617;48.836;9.172;2022-07-23T12:27:20;5.10;;;4.60;;
7150;SDS011;3617;48.836;9.172;2022-07-23T12:29:46;6.00;;;4.82;;
7150;SDS011;3617;48.836;9.172;2022-07-23T12:32:22;4.97;;;4.47;;
7150;SDS011;3617;48.836;9.172;2022-07-23T12:37:34;5.68;;;4.35;;
7150;SDS011;3617;48.836;9.172;2022-07-23T12:42:45;6.57;;;4.85;;
7150;SDS011;3617;48.836;9.172;2022-07-23T12:45:12;5.90;;;4.72;;
7150;SDS011;3617;48.836;9.172;2022-07-23T12:53:04;5.53;;;4.50;;
7150;SDS011;3617;48.836;9.172;2022-07-23T12:55:30;5.53;;;4.63;;
7150;SDS011;3617;48.836;9.172;2022-07-23T12:58:03;5.88;;;4.38;;
7150;SDS011;3617;48.836;9.172;2022-07-23T13:00:29;5.00;;;4.50;;
7150;SDS011;3617;48.836;9.172;2022-07-23T13:02:56;5.75;;;5.10;;
7150;SDS011;3617;48.836;9.172;2022-07-23T13:05:22;5.32;;;4.60;;
7150;SDS011;3617;48.836;9.172;2022-07-23T13:07:48;6.35;;;4.88;;
7150;SDS011;3617;48.836;9.172;2022-07-23T13:10:14;5.55;;;4.57;;
7150;SDS011;3617;48.836;9.172;2022-07-23T13:12:40;5.15;;;4.65;;
7150;SDS011;3617;48.836;9.172;2022-07-23T13:15:06;5.18;;;4.65;;
7150;SDS011;3617;48.836;9.172;2022-07-23T13:17:32;6.57;;;4.97;;
7150;SDS011;3617;48.836;9.172;2022-07-23T13:19:58;5.60;;;5.00;;
7150;SDS011;3617;48.836;9.172;2022-07-23T13:22:24;5.47;;;4.70;;
7150;SDS011;3617;48.836;9.172;2022-07-23T13:24:50;5.63;;;4.80;;
7150;SDS011;3617;48.836;9.172;2022-07-23T13:27:17;5.50;;;5.00;;
7150;SDS011;3617;48.836;9.172;2022-07-23T13:29:43;5.63;;;5.03;;
7150;SDS011;3617;48.836;9.172;2022-07-23T13:32:09;5.90;;;5.32;;
7150;SDS011;3617;48.836;9.172;2022-07-23T13:34:35;5.70;;;5.10;;
7150;SDS011;3617;48.836;9.172;2022-07-23T13:37:01;6.53;;;5.43;;
7150;SDS011;3617;48.836;9.172;2022-07-23T13:39:27;8.73;;;5.55;;
7150;SDS011;3617;48.836;9.172;2022-07-23T13:41:53;6.68;;;5.70;;
7150;SDS011;3617;48.836;9.172;2022-07-23T13:44:19;6.28;;;5.50;;
7150;SDS011;3617;48.836;9.172;2022-07-23T13:46:45;8.27;;;6.00;;
7150;SDS011;3617;48.836;9.172;2022-07-23T13:49:11;6.70;;;6.00;;
7150;SDS011;3617;48.836;9.172;2022-07-23T13:51:37;8.23;;;6.35;;
7150;SDS011;3617;48.836;9.172;2022-07-23T13:54:03;7.43;;;5.80;;
7150;SDS011;3617;48.836;9.172;2022-07-23T13:56:29;6.00;;;5.40;;
7150;SDS011;3617;48.836;9.172;2022-07-23T13:58:55;5.70;;;5.20;;
7150;SDS011;3617;48.836;9.172;2022-07-23T14:01:21;5.95;;;5.38;;
7150;SDS011;3617;48.836;9.172;2022-07-23T14:03:47;6.22;;;5.38;;
7150;SDS011;3617;48.836;9.172;2022-07-23T14:06:13;5.95;;;5.20;;
7150;SDS011;3617;48.836;9.172;2022-07-23T14:08:39;6.78;;;5.38;;
7150;SDS011;3617;48.836;9.172;2022-07-23T14:11:05;6.82;;;5.60;;
7150;SDS011;3617;48.836;9.172;2022-07-23T14:13:31;6.53;;;5.53;;
7150;SDS011;3617;48.836;9.172;2022-07-23T14:15:57;8.18;;;5.25;;
7150;SDS011;3617;48.836;9.172;2022-07-23T14:18:23;5.43;;;4.93;;
7150;SDS011;3617;48.836;9.172;2022-07-23T14:20:49;7.30;;;5.45;;
7150;SDS011;3617;48.836;9.172;2022-07-23T14:23:15;8.77;;;5.80;;
7150;SDS011;3617;48.836;9.172;2022-07-23T14:25:41;5.32;;;4.82;;
7150;SDS011;3617;48.836;9.172;2022-07-23T14:28:07;6.32;;;4.90;;
7150;SDS011;3617;48.836;9.172;2022-07-23T14:30:33;5.93;;;5.28;;
7150;SDS011;3617;48.836;9.172;2022-07-23T14:33:00;5.97;;;5.35;;
7150;SDS011;3617;48.836;9.172;2022-07-23T14:35:26;5.90;;;4.85;;
7150;SDS011;3617;48.836;9.172;2022-07-23T14:37:52;6.65;;;5.13;;
7150;SDS011;3617;48.836;9.172;2022-07-23T14:40:18;6.95;;;5.35;;
7150;SDS011;3617;48.836;9.172;2022-07-23T14:42:44;6.00;;;5.40;;
7150;SDS011;3617;48.836;9.172;2022-07-23T14:45:10;6.47;;;5.45;;
7150;SDS011;3617;48.836;9.172;2022-07-23T14:47:36;6.38;;;4.97;;
7150;SDS011;3617;48.836;9.172;2022-07-23T14:50:02;6.50;;;5.43;;
7150;SDS011;3617;48.836;9.172;2022-07-23T14:52:28;6.65;;;5.47;;
7150;SDS011;3617;48.836;9.172;2022-07-23T14:54:54;7.00;;;5.30;;
7150;SDS011;3617;48.836;9.172;2022-07-23T14:57:20;5.70;;;5.20;;
7150;SDS011;3617;48.836;9.172;2022-07-23T14:59:46;5.75;;;5.25;;
7150;SDS011;3617;48.836;9.172;2022-07-23T15:02:12;6.55;;;5.70;;
7150;SDS011;3617;48.836;9.172;2022-07-23T15:04:38;5.22;;;4.72;;
7150;SDS011;3617;48.836;9.172;2022-07-23T15:07:04;5.78;;;5.03;;
7150;SDS011;3617;48.836;9.172;2022-07-23T15:09:30;6.60;;;5.22;;
7150;SDS011;3617;48.836;9.172;2022-07-23T15:11:56;6.20;;;5.25;;
7150;SDS011;3617;48.836;9.172;2022-07-23T15:14:23;6.20;;;5.15;;
7150;SDS011;3617;48.836;9.172;2022-07-23T15:16:49;5.85;;;5.35;;
7150;SDS011;3617;48.836;9.172;2022-07-23T15:19:15;6.25;;;5.38;;
7150;SDS011;3617;48.836;9.172;2022-07-23T15:21:41;5.55;;;5.05;;
7150;SDS011;3617;48.836;9.172;2022-07-23T15:24:07;7.20;;;5.47;;
7150;SDS011;3617;48.836;9.172;2022-07-23T15:26:33;5.68;;;4.68;;
7150;SDS011;3617;48.836;9.172;2022-07-23T15:28:59;7.38;;;5.13;;
7150;SDS011;3617;48.836;9.172;2022-07-23T15:31:27;5.68;;;5.07;;
7150;SDS011;3617;48.836;9.172;2022-07-23T15:33:53;5.60;;;5.10;;
7150;SDS011;3617;48.836;9.172;2022-07-23T15:36:20;7.70;;;5.28;;
7150;SDS011;3617;48.836;9.172;2022-07-23T15:38:46;6.00;;;5.25;;
7150;SDS011;3617;48.836;9.172;2022-07-23T15:41:12;5.97;;;5.18;;
7150;SDS011;3617;48.836;9.172;2022-07-23T15:43:39;5.68;;;5.15;;
7150;SDS011;3617;48.836;9.172;2022-07-23T15:46:05;7.47;;;5.60;;
7150;SDS011;3617;48.836;9.172;2022-07-23T15:48:31;6.18;;;5.47;;
7150;SDS011;3617;48.836;9.172;2022-07-23T15:50:59;6.85;;;5.07;;
7150;SDS011;3617;48.836;9.172;2022-07-23T15:53:26;5.95;;;5.35;;
7150;SDS011;3617;48.836;9.172;2022-07-23T15:55:52;5.97;;;5.15;;
7150;SDS011;3617;48.836;9.172;2022-07-23T15:58:18;5.88;;;5.25;;
7150;SDS011;3617;48.836;9.172;2022-07-23T16:00:44;6.43;;;5.55;;
7150;SDS011;3617;48.836;9.172;2022-07-23T16:03:10;6.53;;;5.22;;
7150;SDS011;3617;48.836;9.172;2022-07-23T16:05:36;6.38;;;5.38;;
7150;SDS011;3617;48.836;9.172;2022-07-23T16:08:03;6.38;;;5.38;;
7150;SDS011;3617;48.836;9.172;2022-07-23T16:10:29;7.45;;;5.32;;
7150;SDS011;3617;48.836;9.172;2022-07-23T16:12:56;6.25;;;5.30;;